sensor_id;sensor_type;location;lat;lon;timestamp;temperature;humidity
24217;DHT22;12356;49.386;8.688;2023-10-13T00:00:42;18.00;84.60
24217;DHT22;12356;49.386;8.688;2023-10-13T00:03:13;18.00;84.90
24217;DHT22;12356;49.386;8.688;2023-10-13T00:05:46;18.00;85.00
24217;DHT22;12356;49.386;8.688;2023-10-13T00:08:18;18.00;85.00
24217;DHT22;12356;49.386;8.688;2023-10-13T00:10:51;18.00;84.70
24217;DHT22;12356;49.386;8.688;2023-10-13T00:13:21;18.00;84.40
24217;DHT22;12356;49.386;8.688;2023-10-13T00:15:52;18.00;83.70
24217;DHT22;12356;49.386;8.688;2023-10-13T00:18:30;18.00;81.70
24217;DHT22;12356;49.386;8.688;2023-10-13T00:21:03;18.00;80.60
24217;DHT22;12356;49.386;8.688;2023-10-13T00:23:44;18.00;79.40
24217;DHT22;12356;49.386;8.688;2023-10-13T00:26:28;18.00;77.50
24217;DHT22;12356;49.386;8.688;2023-10-13T00:29:01;18.00;77.10
24217;DHT22;12356;49.386;8.688;2023-10-13T00:31:38;18.10;76.10
24217;DHT22;12356;49.386;8.688;2023-10-13T00:34:11;18.10;75.80
24217;DHT22;12356;49.386;8.688;2023-10-13T00:36:46;18.10;76.00
24217;DHT22;12356;49.386;8.688;2023-10-13T00:39:39;18.10;76.10
24217;DHT22;12356;49.386;8.688;2023-10-13T00:42:15;18.10;76.80
24217;DHT22;12356;49.386;8.688;2023-10-13T00:44:50;18.10;76.40
24217;DHT22;12356;49.386;8.688;2023-10-13T00:47:24;18.20;76.60
24217;DHT22;12356;49.386;8.688;2023-10-13T00:50:07;18.20;76.80
24217;DHT22;12356;49.386;8.688;2023-10-13T00:52:43;18.10;76.20
24217;DHT22;12356;49.386;8.688;2023-10-13T00:55:18;18.10;75.50
24217;DHT22;12356;49.386;8.688;2023-10-13T00:57:54;18.20;74.70
24217;DHT22;12356;49.386;8.688;2023-10-13T01:00:27;18.20;74.70
24217;DHT22;12356;49.386;8.688;2023-10-13T01:02:59;18.20;74.50
24217;DHT22;12356;49.386;8.688;2023-10-13T01:05:37;18.20;74.10
24217;DHT22;12356;49.386;8.688;2023-10-13T01:08:09;18.20;73.10
24217;DHT22;12356;49.386;8.688;2023-10-13T01:10:41;18.20;72.20
24217;DHT22;12356;49.386;8.688;2023-10-13T01:13:12;18.20;71.20
24217;DHT22;12356;49.386;8.688;2023-10-13T01:15:42;18.20;70.20
24217;DHT22;12356;49.386;8.688;2023-10-13T01:18:13;18.20;69.60
24217;DHT22;12356;49.386;8.688;2023-10-13T01:20:47;18.20;68.70
24217;DHT22;12356;49.386;8.688;2023-10-13T01:23:22;18.20;68.90
24217;DHT22;12356;49.386;8.688;2023-10-13T01:25:58;18.20;68.50
24217;DHT22;12356;49.386;8.688;2023-10-13T01:28:29;18.30;68.60
24217;DHT22;12356;49.386;8.688;2023-10-13T01:31:00;18.20;66.40
24217;DHT22;12356;49.386;8.688;2023-10-13T01:33:34;18.20;65.40
24217;DHT22;12356;49.386;8.688;2023-10-13T01:36:05;18.20;66.20
24217;DHT22;12356;49.386;8.688;2023-10-13T01:38:40;18.20;65.20
24217;DHT22;12356;49.386;8.688;2023-10-13T01:41:13;18.20;62.50
24217;DHT22;12356;49.386;8.688;2023-10-13T01:43:44;18.30;62.50
24217;DHT22;12356;49.386;8.688;2023-10-13T01:46:15;18.30;63.40
24217;DHT22;12356;49.386;8.688;2023-10-13T01:48:49;18.30;64.60
24217;DHT22;12356;49.386;8.688;2023-10-13T01:51:24;18.30;65.80
24217;DHT22;12356;49.386;8.688;2023-10-13T01:53:57;18.40;64.40
24217;DHT22;12356;49.386;8.688;2023-10-13T01:56:28;18.40;63.70
24217;DHT22;12356;49.386;8.688;2023-10-13T01:59:00;18.40;63.90
24217;DHT22;12356;49.386;8.688;2023-10-13T02:01:35;18.40;63.10
24217;DHT22;12356;49.386;8.688;2023-10-13T02:04:05;18.40;62.70
24217;DHT22;12356;49.386;8.688;2023-10-13T02:06:37;18.40;62.20
24217;DHT22;12356;49.386;8.688;2023-10-13T02:09:09;18.40;62.50
24217;DHT22;12356;49.386;8.688;2023-10-13T02:11:56;18.40;61.50
24217;DHT22;12356;49.386;8.688;2023-10-13T02:14:27;18.40;60.90
24217;DHT22;12356;49.386;8.688;2023-10-13T02:16:57;18.40;56.80
24217;DHT22;12356;49.386;8.688;2023-10-13T02:19:43;18.40;56.30
24217;DHT22;12356;49.386;8.688;2023-10-13T02:22:15;18.40;54.30
24217;DHT22;12356;49.386;8.688;2023-10-13T02:24:57;18.40;54.20
24217;DHT22;12356;49.386;8.688;2023-10-13T02:27:35;18.40;54.60
24217;DHT22;12356;49.386;8.688;2023-10-13T02:30:12;18.40;53.60
24217;DHT22;12356;49.386;8.688;2023-10-13T02:32:45;18.40;53.30
24217;DHT22;12356;49.386;8.688;2023-10-13T02:35:16;18.30;50.30
24217;DHT22;12356;49.386;8.688;2023-10-13T02:38:01;18.30;52.70
24217;DHT22;12356;49.386;8.688;2023-10-13T02:40:40;18.20;51.10
24217;DHT22;12356;49.386;8.688;2023-10-13T02:43:12;18.20;51.20
24217;DHT22;12356;49.386;8.688;2023-10-13T02:45:52;18.20;50.10
24217;DHT22;12356;49.386;8.688;2023-10-13T02:48:29;18.20;47.40
24217;DHT22;12356;49.386;8.688;2023-10-13T02:51:12;18.20;46.00
24217;DHT22;12356;49.386;8.688;2023-10-13T02:53:47;18.20;46.90
24217;DHT22;12356;49.386;8.688;2023-10-13T02:56:22;18.30;49.30
24217;DHT22;12356;49.386;8.688;2023-10-13T02:58:53;18.20;48.70
24217;DHT22;12356;49.386;8.688;2023-10-13T03:01:23;18.20;49.40
24217;DHT22;12356;49.386;8.688;2023-10-13T03:04:04;18.20;51.20
24217;DHT22;12356;49.386;8.688;2023-10-13T03:06:39;18.30;52.60
24217;DHT22;12356;49.386;8.688;2023-10-13T03:09:12;18.20;52.90
24217;DHT22;12356;49.386;8.688;2023-10-13T03:11:51;18.20;53.90
24217;DHT22;12356;49.386;8.688;2023-10-13T03:14:22;18.20;54.40
24217;DHT22;12356;49.386;8.688;2023-10-13T03:17:00;18.20;53.70
24217;DHT22;12356;49.386;8.688;2023-10-13T03:19:42;18.20;51.50
24217;DHT22;12356;49.386;8.688;2023-10-13T03:22:17;18.20;51.80
24217;DHT22;12356;49.386;8.688;2023-10-13T03:24:47;18.20;52.20
24217;DHT22;12356;49.386;8.688;2023-10-13T03:27:19;18.30;52.20
24217;DHT22;12356;49.386;8.688;2023-10-13T03:29:54;18.20;52.00
24217;DHT22;12356;49.386;8.688;2023-10-13T03:32:24;18.30;51.40
24217;DHT22;12356;49.386;8.688;2023-10-13T03:34:56;18.30;53.20
24217;DHT22;12356;49.386;8.688;2023-10-13T03:37:30;18.30;54.70
24217;DHT22;12356;49.386;8.688;2023-10-13T03:40:11;18.30;56.70
24217;DHT22;12356;49.386;8.688;2023-10-13T03:42:52;18.30;58.00
24217;DHT22;12356;49.386;8.688;2023-10-13T03:45:45;18.20;59.80
24217;DHT22;12356;49.386;8.688;2023-10-13T03:48:19;18.20;59.20
24217;DHT22;12356;49.386;8.688;2023-10-13T03:50:56;18.20;59.80
24217;DHT22;12356;49.386;8.688;2023-10-13T03:53:35;18.20;61.10
24217;DHT22;12356;49.386;8.688;2023-10-13T03:56:06;18.20;62.30
24217;DHT22;12356;49.386;8.688;2023-10-13T03:58:47;18.20;62.70
24217;DHT22;12356;49.386;8.688;2023-10-13T04:01:23;18.20;61.60
24217;DHT22;12356;49.386;8.688;2023-10-13T04:04:14;18.30;61.80
24217;DHT22;12356;49.386;8.688;2023-10-13T04:06:46;18.30;62.60
24217;DHT22;12356;49.386;8.688;2023-10-13T04:09:21;18.30;62.30
24217;DHT22;12356;49.386;8.688;2023-10-13T04:12:02;18.30;60.80
24217;DHT22;12356;49.386;8.688;2023-10-13T04:14:36;18.30;61.40
24217;DHT22;12356;49.386;8.688;2023-10-13T04:17:25;18.30;61.00
24217;DHT22;12356;49.386;8.688;2023-10-13T04:19:58;18.30;60.00
24217;DHT22;12356;49.386;8.688;2023-10-13T04:22:39;18.30;58.90
24217;DHT22;12356;49.386;8.688;2023-10-13T04:25:25;18.20;58.70
24217;DHT22;12356;49.386;8.688;2023-10-13T04:28:15;18.30;57.50
24217;DHT22;12356;49.386;8.688;2023-10-13T04:31:05;18.30;56.90
24217;DHT22;12356;49.386;8.688;2023-10-13T04:33:54;18.30;56.20
24217;DHT22;12356;49.386;8.688;2023-10-13T04:36:32;18.30;55.70
24217;DHT22;12356;49.386;8.688;2023-10-13T04:39:03;18.30;54.90
24217;DHT22;12356;49.386;8.688;2023-10-13T04:41:40;18.40;53.70
24217;DHT22;12356;49.386;8.688;2023-10-13T04:44:28;18.40;50.30
24217;DHT22;12356;49.386;8.688;2023-10-13T04:47:10;18.40;48.40
24217;DHT22;12356;49.386;8.688;2023-10-13T04:49:52;18.40;46.00
24217;DHT22;12356;49.386;8.688;2023-10-13T04:52:22;18.40;46.60
24217;DHT22;12356;49.386;8.688;2023-10-13T04:55:11;18.30;45.30
24217;DHT22;12356;49.386;8.688;2023-10-13T04:58:08;18.30;43.40
24217;DHT22;12356;49.386;8.688;2023-10-13T05:01:01;18.30;42.40
24217;DHT22;12356;49.386;8.688;2023-10-13T05:03:51;18.30;40.80
24217;DHT22;12356;49.386;8.688;2023-10-13T05:06:39;18.30;40.90
24217;DHT22;12356;49.386;8.688;2023-10-13T05:09:16;18.30;39.20
24217;DHT22;12356;49.386;8.688;2023-10-13T05:12:05;18.20;36.90
24217;DHT22;12356;49.386;8.688;2023-10-13T05:14:54;18.20;35.00
24217;DHT22;12356;49.386;8.688;2023-10-13T05:17:43;18.20;35.30
24217;DHT22;12356;49.386;8.688;2023-10-13T05:20:32;18.20;33.80
24217;DHT22;12356;49.386;8.688;2023-10-13T05:23:21;18.20;34.60
24217;DHT22;12356;49.386;8.688;2023-10-13T05:26:11;18.20;35.40
24217;DHT22;12356;49.386;8.688;2023-10-13T05:29:00;18.20;33.20
24217;DHT22;12356;49.386;8.688;2023-10-13T05:31:49;18.20;33.50
24217;DHT22;12356;49.386;8.688;2023-10-13T05:34:38;18.20;31.60
24217;DHT22;12356;49.386;8.688;2023-10-13T05:37:28;18.20;32.60
24217;DHT22;12356;49.386;8.688;2023-10-13T05:40:17;18.20;30.80
24217;DHT22;12356;49.386;8.688;2023-10-13T05:43:06;18.20;30.60
24217;DHT22;12356;49.386;8.688;2023-10-13T05:46:03;18.20;31.10
24217;DHT22;12356;49.386;8.688;2023-10-13T05:48:53;18.20;32.30
24217;DHT22;12356;49.386;8.688;2023-10-13T05:51:27;18.30;31.20
24217;DHT22;12356;49.386;8.688;2023-10-13T05:54:14;18.30;27.40
24217;DHT22;12356;49.386;8.688;2023-10-13T05:56:46;18.30;25.60
24217;DHT22;12356;49.386;8.688;2023-10-13T05:59:37;18.30;25.00
24217;DHT22;12356;49.386;8.688;2023-10-13T06:02:27;18.30;23.60
24217;DHT22;12356;49.386;8.688;2023-10-13T06:05:16;18.30;24.40
24217;DHT22;12356;49.386;8.688;2023-10-13T06:08:05;18.40;24.20
24217;DHT22;12356;49.386;8.688;2023-10-13T06:11:01;18.40;21.70
24217;DHT22;12356;49.386;8.688;2023-10-13T06:13:50;18.40;20.50
24217;DHT22;12356;49.386;8.688;2023-10-13T06:16:40;18.40;20.90
24217;DHT22;12356;49.386;8.688;2023-10-13T06:19:29;18.40;20.00
24217;DHT22;12356;49.386;8.688;2023-10-13T06:22:18;18.40;20.30
24217;DHT22;12356;49.386;8.688;2023-10-13T06:25:07;18.40;20.70
24217;DHT22;12356;49.386;8.688;2023-10-13T06:27:56;18.40;20.30
24217;DHT22;12356;49.386;8.688;2023-10-13T06:30:54;18.40;18.40
24217;DHT22;12356;49.386;8.688;2023-10-13T06:33:26;18.50;18.50
24217;DHT22;12356;49.386;8.688;2023-10-13T06:36:02;18.50;19.20
24217;DHT22;12356;49.386;8.688;2023-10-13T06:38:33;18.50;21.40
24217;DHT22;12356;49.386;8.688;2023-10-13T06:41:07;18.50;21.00
24217;DHT22;12356;49.386;8.688;2023-10-13T06:43:38;18.50;20.90
24217;DHT22;12356;49.386;8.688;2023-10-13T06:46:13;18.40;20.50
24217;DHT22;12356;49.386;8.688;2023-10-13T06:48:46;18.40;19.50
24217;DHT22;12356;49.386;8.688;2023-10-13T06:51:20;18.50;19.50
24217;DHT22;12356;49.386;8.688;2023-10-13T06:53:57;18.50;19.70
24217;DHT22;12356;49.386;8.688;2023-10-13T06:56:27;18.50;20.60
24217;DHT22;12356;49.386;8.688;2023-10-13T06:58:58;18.50;19.30
24217;DHT22;12356;49.386;8.688;2023-10-13T07:01:34;18.50;19.10
24217;DHT22;12356;49.386;8.688;2023-10-13T07:04:12;18.50;21.60
24217;DHT22;12356;49.386;8.688;2023-10-13T07:06:44;18.50;19.00
24217;DHT22;12356;49.386;8.688;2023-10-13T07:09:20;18.50;18.90
24217;DHT22;12356;49.386;8.688;2023-10-13T07:12:06;18.60;20.30
24217;DHT22;12356;49.386;8.688;2023-10-13T07:14:47;18.60;20.50
24217;DHT22;12356;49.386;8.688;2023-10-13T07:17:25;18.60;19.50
24217;DHT22;12356;49.386;8.688;2023-10-13T07:19:56;18.70;20.20
24217;DHT22;12356;49.386;8.688;2023-10-13T07:22:36;18.60;19.00
24217;DHT22;12356;49.386;8.688;2023-10-13T07:25:10;18.70;18.20
24217;DHT22;12356;49.386;8.688;2023-10-13T07:27:47;18.70;18.80
24217;DHT22;12356;49.386;8.688;2023-10-13T07:30:17;18.80;18.50
24217;DHT22;12356;49.386;8.688;2023-10-13T07:32:57;18.90;19.00
24217;DHT22;12356;49.386;8.688;2023-10-13T07:35:30;18.90;18.60
24217;DHT22;12356;49.386;8.688;2023-10-13T07:38:06;18.90;16.30
24217;DHT22;12356;49.386;8.688;2023-10-13T07:40:39;19.00;16.40
24217;DHT22;12356;49.386;8.688;2023-10-13T07:43:12;19.00;16.80
24217;DHT22;12356;49.386;8.688;2023-10-13T07:45:43;19.10;16.00
24217;DHT22;12356;49.386;8.688;2023-10-13T07:48:14;19.20;16.60
24217;DHT22;12356;49.386;8.688;2023-10-13T07:51:02;19.20;16.30
24217;DHT22;12356;49.386;8.688;2023-10-13T07:53:53;19.20;16.60
24217;DHT22;12356;49.386;8.688;2023-10-13T07:56:23;19.30;16.10
24217;DHT22;12356;49.386;8.688;2023-10-13T07:58:54;19.40;16.20
24217;DHT22;12356;49.386;8.688;2023-10-13T08:01:30;19.30;15.90
24217;DHT22;12356;49.386;8.688;2023-10-13T08:04:01;19.40;16.50
24217;DHT22;12356;49.386;8.688;2023-10-13T08:06:44;19.50;16.70
24217;DHT22;12356;49.386;8.688;2023-10-13T08:09:15;19.50;14.50
24217;DHT22;12356;49.386;8.688;2023-10-13T08:12:02;19.50;13.30
24217;DHT22;12356;49.386;8.688;2023-10-13T08:14:35;19.60;12.30
24217;DHT22;12356;49.386;8.688;2023-10-13T08:17:09;19.70;12.00
24217;DHT22;12356;49.386;8.688;2023-10-13T08:19:41;19.60;12.80
24217;DHT22;12356;49.386;8.688;2023-10-13T08:22:18;19.60;11.70
24217;DHT22;12356;49.386;8.688;2023-10-13T08:24:50;19.60;11.10
24217;DHT22;12356;49.386;8.688;2023-10-13T08:27:21;19.70;10.80
24217;DHT22;12356;49.386;8.688;2023-10-13T08:30:30;19.70;11.00
24217;DHT22;12356;49.386;8.688;2023-10-13T08:33:01;19.70;11.60
24217;DHT22;12356;49.386;8.688;2023-10-13T08:35:47;19.80;11.70
24217;DHT22;12356;49.386;8.688;2023-10-13T08:38:46;19.80;11.70
24217;DHT22;12356;49.386;8.688;2023-10-13T08:41:25;19.80;12.00
24217;DHT22;12356;49.386;8.688;2023-10-13T08:44:02;19.80;11.90
24217;DHT22;12356;49.386;8.688;2023-10-13T08:46:37;19.80;12.40
24217;DHT22;12356;49.386;8.688;2023-10-13T08:49:32;19.80;12.20
24217;DHT22;12356;49.386;8.688;2023-10-13T08:52:11;19.90;10.80
24217;DHT22;12356;49.386;8.688;2023-10-13T08:55:05;19.90;8.80
24217;DHT22;12356;49.386;8.688;2023-10-13T08:57:54;20.00;8.40
24217;DHT22;12356;49.386;8.688;2023-10-13T09:00:33;20.00;8.10
24217;DHT22;12356;49.386;8.688;2023-10-13T09:03:22;20.00;7.80
24217;DHT22;12356;49.386;8.688;2023-10-13T09:05:59;20.00;8.80
24217;DHT22;12356;49.386;8.688;2023-10-13T09:08:33;20.10;7.80
24217;DHT22;12356;49.386;8.688;2023-10-13T09:11:15;20.10;8.00
24217;DHT22;12356;49.386;8.688;2023-10-13T09:13:50;20.10;7.70
24217;DHT22;12356;49.386;8.688;2023-10-13T09:16:24;20.10;7.40
24217;DHT22;12356;49.386;8.688;2023-10-13T09:19:09;20.10;7.30
24217;DHT22;12356;49.386;8.688;2023-10-13T09:21:42;20.20;7.40
24217;DHT22;12356;49.386;8.688;2023-10-13T09:24:13;20.20;7.40
24217;DHT22;12356;49.386;8.688;2023-10-13T09:26:51;20.30;7.40
24217;DHT22;12356;49.386;8.688;2023-10-13T09:29:25;20.30;7.30
24217;DHT22;12356;49.386;8.688;2023-10-13T09:32:03;20.40;7.80
24217;DHT22;12356;49.386;8.688;2023-10-13T09:34:34;20.50;6.70
24217;DHT22;12356;49.386;8.688;2023-10-13T09:37:10;20.60;7.70
24217;DHT22;12356;49.386;8.688;2023-10-13T09:39:42;20.70;4.60
24217;DHT22;12356;49.386;8.688;2023-10-13T09:42:23;20.70;4.70
24217;DHT22;12356;49.386;8.688;2023-10-13T09:44:56;20.80;5.30
24217;DHT22;12356;49.386;8.688;2023-10-13T09:47:29;20.90;6.10
24217;DHT22;12356;49.386;8.688;2023-10-13T09:50:02;20.90;5.00
24217;DHT22;12356;49.386;8.688;2023-10-13T09:52:36;20.90;4.90
24217;DHT22;12356;49.386;8.688;2023-10-13T09:55:13;21.10;2.80
24217;DHT22;12356;49.386;8.688;2023-10-13T09:57:54;21.10;2.60
24217;DHT22;12356;49.386;8.688;2023-10-13T10:00:31;21.20;2.10
24217;DHT22;12356;49.386;8.688;2023-10-13T10:03:16;21.30;2.60
24217;DHT22;12356;49.386;8.688;2023-10-13T10:06:03;21.40;1.00
24217;DHT22;12356;49.386;8.688;2023-10-13T10:08:34;21.40;1.00
24217;DHT22;12356;49.386;8.688;2023-10-13T10:11:17;21.60;1.00
24217;DHT22;12356;49.386;8.688;2023-10-13T10:19:30;21.90;1.00
24217;DHT22;12356;49.386;8.688;2023-10-13T10:22:06;21.90;1.00
24217;DHT22;12356;49.386;8.688;2023-10-13T10:25:03;22.00;1.00
24217;DHT22;12356;49.386;8.688;2023-10-13T10:27:37;22.10;1.00
24217;DHT22;12356;49.386;8.688;2023-10-13T10:30:07;22.10;1.00
24217;DHT22;12356;49.386;8.688;2023-10-13T10:32:43;22.10;1.00
24217;DHT22;12356;49.386;8.688;2023-10-13T10:35:23;22.20;1.00
24217;DHT22;12356;49.386;8.688;2023-10-13T10:37:54;22.20;1.00
24217;DHT22;12356;49.386;8.688;2023-10-13T10:40:26;22.30;1.00
24217;DHT22;12356;49.386;8.688;2023-10-13T10:43:04;22.40;1.00
24217;DHT22;12356;49.386;8.688;2023-10-13T10:45:38;22.50;1.00
24217;DHT22;12356;49.386;8.688;2023-10-13T10:48:15;22.60;1.00
24217;DHT22;12356;49.386;8.688;2023-10-13T10:50:56;22.80;1.00
24217;DHT22;12356;49.386;8.688;2023-10-13T10:53:26;22.90;1.00
24217;DHT22;12356;49.386;8.688;2023-10-13T10:56:07;22.90;1.00
24217;DHT22;12356;49.386;8.688;2023-10-13T10:59:16;22.90;1.00
24217;DHT22;12356;49.386;8.688;2023-10-13T11:01:50;22.90;1.00
24217;DHT22;12356;49.386;8.688;2023-10-13T11:04:23;23.00;1.00
24217;DHT22;12356;49.386;8.688;2023-10-13T11:07:04;22.90;1.00
24217;DHT22;12356;49.386;8.688;2023-10-13T11:09:36;23.00;1.00
24217;DHT22;12356;49.386;8.688;2023-10-13T11:14:45;23.00;1.00
24217;DHT22;12356;49.386;8.688;2023-10-13T11:17:21;23.10;1.00
24217;DHT22;12356;49.386;8.688;2023-10-13T11:19:56;23.10;1.00
24217;DHT22;12356;49.386;8.688;2023-10-13T11:22:27;23.10;1.00
24217;DHT22;12356;49.386;8.688;2023-10-13T11:25:06;23.10;1.00
24217;DHT22;12356;49.386;8.688;2023-10-13T11:27:41;23.10;1.00
24217;DHT22;12356;49.386;8.688;2023-10-13T11:30:20;23.20;1.00
24217;DHT22;12356;49.386;8.688;2023-10-13T11:33:09;23.20;1.00
24217;DHT22;12356;49.386;8.688;2023-10-13T11:35:40;23.20;1.00
24217;DHT22;12356;49.386;8.688;2023-10-13T11:38:30;23.30;1.00
24217;DHT22;12356;49.386;8.688;2023-10-13T11:41:19;23.30;1.00
24217;DHT22;12356;49.386;8.688;2023-10-13T11:43:51;23.30;1.00
24217;DHT22;12356;49.386;8.688;2023-10-13T11:46:26;23.40;1.00
24217;DHT22;12356;49.386;8.688;2023-10-13T11:49:07;23.40;1.00
24217;DHT22;12356;49.386;8.688;2023-10-13T11:51:49;23.40;1.00
24217;DHT22;12356;49.386;8.688;2023-10-13T11:54:20;23.40;1.00
24217;DHT22;12356;49.386;8.688;2023-10-13T11:56:53;23.50;1.00
24217;DHT22;12356;49.386;8.688;2023-10-13T11:59:24;23.50;1.00
24217;DHT22;12356;49.386;8.688;2023-10-13T12:01:57;23.60;1.00
24217;DHT22;12356;49.386;8.688;2023-10-13T12:04:46;23.60;1.00
24217;DHT22;12356;49.386;8.688;2023-10-13T12:07:25;23.50;1.00
24217;DHT22;12356;49.386;8.688;2023-10-13T12:10:15;23.50;1.00
24217;DHT22;12356;49.386;8.688;2023-10-13T12:12:47;23.50;1.00
24217;DHT22;12356;49.386;8.688;2023-10-13T12:15:24;23.50;1.00
24217;DHT22;12356;49.386;8.688;2023-10-13T12:18:07;23.50;1.00
24217;DHT22;12356;49.386;8.688;2023-10-13T12:20:38;23.70;1.00
24217;DHT22;12356;49.386;8.688;2023-10-13T12:23:16;23.70;1.00
24217;DHT22;12356;49.386;8.688;2023-10-13T12:25:47;23.70;1.00
24217;DHT22;12356;49.386;8.688;2023-10-13T12:28:29;23.90;1.00
24217;DHT22;12356;49.386;8.688;2023-10-13T12:31:04;23.90;1.00
24217;DHT22;12356;49.386;8.688;2023-10-13T12:33:38;24.00;1.00
24217;DHT22;12356;49.386;8.688;2023-10-13T12:36:10;24.00;1.00
24217;DHT22;12356;49.386;8.688;2023-10-13T12:38:44;24.00;1.00
24217;DHT22;12356;49.386;8.688;2023-10-13T12:41:18;24.00;1.00
24217;DHT22;12356;49.386;8.688;2023-10-13T12:44:08;24.00;1.00
24217;DHT22;12356;49.386;8.688;2023-10-13T12:46:57;23.90;1.00
24217;DHT22;12356;49.386;8.688;2023-10-13T12:49:46;23.90;1.00
24217;DHT22;12356;49.386;8.688;2023-10-13T12:52:17;23.80;1.00
24217;DHT22;12356;49.386;8.688;2023-10-13T12:54:51;23.80;1.00
24217;DHT22;12356;49.386;8.688;2023-10-13T12:57:28;23.80;1.00
24217;DHT22;12356;49.386;8.688;2023-10-13T12:59:59;23.80;1.00
24217;DHT22;12356;49.386;8.688;2023-10-13T13:02:29;23.70;1.00
24217;DHT22;12356;49.386;8.688;2023-10-13T13:05:01;23.70;1.00
24217;DHT22;12356;49.386;8.688;2023-10-13T13:07:42;23.70;1.00
24217;DHT22;12356;49.386;8.688;2023-10-13T13:10:22;23.70;1.00
24217;DHT22;12356;49.386;8.688;2023-10-13T13:13:05;23.60;1.00
24217;DHT22;12356;49.386;8.688;2023-10-13T13:15:36;23.60;1.00
24217;DHT22;12356;49.386;8.688;2023-10-13T13:18:06;23.60;1.00
24217;DHT22;12356;49.386;8.688;2023-10-13T13:20:42;23.60;1.00
24217;DHT22;12356;49.386;8.688;2023-10-13T13:23:26;23.60;1.00
24217;DHT22;12356;49.386;8.688;2023-10-13T13:25:56;23.60;1.00
24217;DHT22;12356;49.386;8.688;2023-10-13T13:28:27;23.60;1.00
24217;DHT22;12356;49.386;8.688;2023-10-13T13:31:08;23.60;1.00
24217;DHT22;12356;49.386;8.688;2023-10-13T13:33:39;23.60;1.00
24217;DHT22;12356;49.386;8.688;2023-10-13T13:36:12;23.60;1.00
24217;DHT22;12356;49.386;8.688;2023-10-13T13:38:46;23.60;1.00
24217;DHT22;12356;49.386;8.688;2023-10-13T13:41:18;23.70;1.00
24217;DHT22;12356;49.386;8.688;2023-10-13T13:43:49;23.80;1.00
24217;DHT22;12356;49.386;8.688;2023-10-13T13:46:21;23.80;1.00
24217;DHT22;12356;49.386;8.688;2023-10-13T13:48:55;23.90;1.00
24217;DHT22;12356;49.386;8.688;2023-10-13T13:51:29;24.10;1.00
24217;DHT22;12356;49.386;8.688;2023-10-13T13:54:02;24.20;1.00
24217;DHT22;12356;49.386;8.688;2023-10-13T13:56:36;24.20;1.00
24217;DHT22;12356;49.386;8.688;2023-10-13T13:59:10;24.30;1.00
24217;DHT22;12356;49.386;8.688;2023-10-13T14:01:46;24.30;1.00
24217;DHT22;12356;49.386;8.688;2023-10-13T14:04:16;24.40;1.00
24217;DHT22;12356;49.386;8.688;2023-10-13T14:06:47;24.40;1.00
24217;DHT22;12356;49.386;8.688;2023-10-13T14:09:18;24.40;1.00
24217;DHT22;12356;49.386;8.688;2023-10-13T14:12:06;24.50;1.00
24217;DHT22;12356;49.386;8.688;2023-10-13T14:14:56;24.40;1.00
24217;DHT22;12356;49.386;8.688;2023-10-13T14:17:27;24.50;1.00
24217;DHT22;12356;49.386;8.688;2023-10-13T14:20:01;24.50;1.00
24217;DHT22;12356;49.386;8.688;2023-10-13T14:22:39;24.40;1.00
24217;DHT22;12356;49.386;8.688;2023-10-13T14:25:12;24.40;1.00
24217;DHT22;12356;49.386;8.688;2023-10-13T14:27:44;24.30;1.00
24217;DHT22;12356;49.386;8.688;2023-10-13T14:30:15;24.30;1.00
24217;DHT22;12356;49.386;8.688;2023-10-13T14:32:49;24.30;1.00
24217;DHT22;12356;49.386;8.688;2023-10-13T14:35:20;24.20;1.00
24217;DHT22;12356;49.386;8.688;2023-10-13T14:37:50;24.20;1.00
24217;DHT22;12356;49.386;8.688;2023-10-13T14:40:21;24.10;1.00
24217;DHT22;12356;49.386;8.688;2023-10-13T14:42:52;24.10;1.00
24217;DHT22;12356;49.386;8.688;2023-10-13T14:45:22;24.10;1.00
24217;DHT22;12356;49.386;8.688;2023-10-13T14:47:53;24.00;1.00
24217;DHT22;12356;49.386;8.688;2023-10-13T14:50:23;24.00;1.00
24217;DHT22;12356;49.386;8.688;2023-10-13T14:52:55;24.00;1.00
24217;DHT22;12356;49.386;8.688;2023-10-13T14:55:25;24.00;1.00
24217;DHT22;12356;49.386;8.688;2023-10-13T14:58:08;24.00;1.00
24217;DHT22;12356;49.386;8.688;2023-10-13T15:00:59;24.00;1.00
24217;DHT22;12356;49.386;8.688;2023-10-13T15:03:51;23.90;1.00
24217;DHT22;12356;49.386;8.688;2023-10-13T15:06:26;23.90;1.00
24217;DHT22;12356;49.386;8.688;2023-10-13T15:09:00;24.00;1.00
24217;DHT22;12356;49.386;8.688;2023-10-13T15:11:31;24.00;1.00
24217;DHT22;12356;49.386;8.688;2023-10-13T15:14:07;24.00;1.00
24217;DHT22;12356;49.386;8.688;2023-10-13T15:16:38;24.00;1.00
24217;DHT22;12356;49.386;8.688;2023-10-13T15:19:08;24.10;1.00
24217;DHT22;12356;49.386;8.688;2023-10-13T15:21:40;24.10;1.00
24217;DHT22;12356;49.386;8.688;2023-10-13T15:24:10;24.20;1.00
24217;DHT22;12356;49.386;8.688;2023-10-13T15:26:44;24.20;1.00
24217;DHT22;12356;49.386;8.688;2023-10-13T15:29:18;24.20;1.00
24217;DHT22;12356;49.386;8.688;2023-10-13T15:31:55;24.20;1.00
24217;DHT22;12356;49.386;8.688;2023-10-13T15:34:28;24.20;1.00
24217;DHT22;12356;49.386;8.688;2023-10-13T15:37:00;24.10;1.00
24217;DHT22;12356;49.386;8.688;2023-10-13T15:39:31;24.10;1.00
24217;DHT22;12356;49.386;8.688;2023-10-13T15:42:02;24.10;1.00
24217;DHT22;12356;49.386;8.688;2023-10-13T15:44:34;24.10;1.00
24217;DHT22;12356;49.386;8.688;2023-10-13T15:47:05;24.10;1.00
24217;DHT22;12356;49.386;8.688;2023-10-13T15:49:35;24.10;1.00
24217;DHT22;12356;49.386;8.688;2023-10-13T15:52:06;24.10;1.00
24217;DHT22;12356;49.386;8.688;2023-10-13T15:54:36;24.10;1.00
24217;DHT22;12356;49.386;8.688;2023-10-13T15:57:08;24.10;1.00
24217;DHT22;12356;49.386;8.688;2023-10-13T15:59:41;24.00;1.00
24217;DHT22;12356;49.386;8.688;2023-10-13T16:02:16;24.00;1.00
24217;DHT22;12356;49.386;8.688;2023-10-13T16:04:50;23.90;1.00
24217;DHT22;12356;49.386;8.688;2023-10-13T16:07:20;23.90;1.00
24217;DHT22;12356;49.386;8.688;2023-10-13T16:09:52;23.80;1.00
24217;DHT22;12356;49.386;8.688;2023-10-13T16:12:27;23.70;1.00
24217;DHT22;12356;49.386;8.688;2023-10-13T16:14:58;23.70;1.00
24217;DHT22;12356;49.386;8.688;2023-10-13T16:17:29;23.60;1.00
24217;DHT22;12356;49.386;8.688;2023-10-13T16:19:59;23.60;1.00
24217;DHT22;12356;49.386;8.688;2023-10-13T16:22:31;23.50;1.00
24217;DHT22;12356;49.386;8.688;2023-10-13T16:25:02;23.40;1.00
24217;DHT22;12356;49.386;8.688;2023-10-13T16:27:42;23.40;1.00
24217;DHT22;12356;49.386;8.688;2023-10-13T16:30:13;23.40;1.00
24217;DHT22;12356;49.386;8.688;2023-10-13T16:32:49;23.30;1.00
24217;DHT22;12356;49.386;8.688;2023-10-13T16:35:19;23.30;1.00
24217;DHT22;12356;49.386;8.688;2023-10-13T16:37:50;23.20;1.00
24217;DHT22;12356;49.386;8.688;2023-10-13T16:40:21;23.20;1.00
24217;DHT22;12356;49.386;8.688;2023-10-13T16:42:51;23.20;1.00
24217;DHT22;12356;49.386;8.688;2023-10-13T16:45:23;23.10;1.00
24217;DHT22;12356;49.386;8.688;2023-10-13T16:47:55;23.10;1.00